createdAt,value
2018-10-17T00:00:23.487Z,94054.19
2018-10-17T00:02:51.602Z,94051.13
2018-10-17T00:05:19.750Z,94053.61
2018-10-17T00:07:47.860Z,94055.40
2018-10-17T00:10:15.961Z,94050.75
2018-10-17T00:12:44.095Z,94048.87
2018-10-17T00:15:12.196Z,94045.84
2018-10-17T00:17:40.310Z,94041.50
2018-10-17T00:20:09.634Z,94038.08
2018-10-17T00:22:37.725Z,94036.08
2018-10-17T00:25:06.336Z,94031.74
2018-10-17T00:27:34.503Z,94030.56
2018-10-17T00:30:02.591Z,94029.99
2018-10-17T00:32:30.691Z,94027.41
2018-10-17T00:34:58.811Z,94033.09
2018-10-17T00:37:26.939Z,94026.69
2018-10-17T00:39:55.125Z,94022.87
2018-10-17T00:42:23.244Z,94024.48
2018-10-17T00:44:51.768Z,94025.73
2018-10-17T00:47:20.395Z,94027.78
2018-10-17T00:49:48.933Z,94030.02
2018-10-17T00:52:17.318Z,94025.56
2018-10-17T00:54:45.793Z,94023.55
2018-10-17T00:57:14.404Z,94021.69
2018-10-17T00:59:42.912Z,94014.14
2018-10-17T01:02:11.517Z,94013.36
2018-10-17T01:04:40.161Z,94011.15
2018-10-17T01:07:08.674Z,94017.84
2018-10-17T01:09:37.275Z,94014.66
2018-10-17T01:12:05.806Z,94013.99
2018-10-17T01:14:34.519Z,94016.26
2018-10-17T01:17:03.125Z,94014.24
2018-10-17T01:19:31.871Z,94020.85
2018-10-17T01:21:59.981Z,94014.36
2018-10-17T01:24:28.074Z,94012.70
2018-10-17T01:26:56.794Z,94015.94
2018-10-17T01:29:25.686Z,94014.79
2018-10-17T01:31:54.073Z,94014.58
2018-10-17T01:34:22.493Z,94015.65
2018-10-17T01:36:51.065Z,94011.27
2018-10-17T01:39:19.567Z,94004.23
2018-10-17T01:41:47.807Z,94004.61
2018-10-17T01:44:16.439Z,94006.00
2018-10-17T01:46:44.834Z,94003.08
2018-10-17T01:49:13.460Z,94001.95
2018-10-17T01:51:42.053Z,94006.52
2018-10-17T01:54:10.572Z,94006.22
2018-10-17T01:56:39.156Z,94007.39
2018-10-17T01:59:07.651Z,94003.09
2018-10-17T02:01:36.403Z,94006.00
2018-10-17T02:04:04.929Z,94007.97
2018-10-17T02:06:33.585Z,94000.33
2018-10-17T02:09:02.318Z,93995.92
2018-10-17T02:11:31.010Z,94000.08
2018-10-17T02:13:59.598Z,93990.04
2018-10-17T02:16:28.222Z,93988.95
2018-10-17T02:18:56.972Z,93988.24
2018-10-17T02:21:25.551Z,93989.17
2018-10-17T02:23:53.749Z,93987.80
2018-10-17T02:26:22.341Z,93985.82
2018-10-17T02:28:50.932Z,93991.11
2018-10-17T02:31:19.507Z,93981.58
2018-10-17T02:33:47.794Z,93983.37
2018-10-17T02:36:16.275Z,93984.53
2018-10-17T02:38:44.870Z,93991.20
2018-10-17T02:41:13.448Z,93985.41
2018-10-17T02:43:41.824Z,93984.53
2018-10-17T02:46:10.399Z,93993.66
2018-10-17T02:48:38.721Z,93988.04
2018-10-17T02:51:07.283Z,93992.59
2018-10-17T02:53:35.909Z,93988.80
2018-10-17T02:56:04.560Z,93986.38
2018-10-17T02:58:33.131Z,93989.18
2018-10-17T03:01:01.756Z,93993.05
2018-10-17T03:03:30.251Z,93989.50
2018-10-17T03:05:58.469Z,93990.14
2018-10-17T03:08:26.987Z,93987.33
2018-10-17T03:10:55.506Z,93989.58
2018-10-17T03:13:24.190Z,93985.98
2018-10-17T03:15:52.844Z,93987.07
2018-10-17T03:18:21.337Z,93988.58
2018-10-17T03:20:49.882Z,93986.13
2018-10-17T03:23:18.675Z,93992.03
2018-10-17T03:25:47.389Z,93981.11
2018-10-17T03:28:16.033Z,93987.55
2018-10-17T03:30:44.454Z,93986.25
2018-10-17T03:33:13.107Z,93982.68
2018-10-17T03:35:41.750Z,93981.72
2018-10-17T03:38:10.100Z,93983.66
2018-10-17T03:40:38.544Z,93981.47
2018-10-17T03:43:07.269Z,93977.03
2018-10-17T03:45:35.792Z,93986.00
2018-10-17T03:48:05.098Z,93981.61
2018-10-17T03:50:33.749Z,93972.53
2018-10-17T03:53:02.979Z,93972.42
2018-10-17T03:55:31.601Z,93971.00
2018-10-17T03:58:00.336Z,93975.13
2018-10-17T04:00:29.131Z,93979.16
2018-10-17T04:02:57.823Z,93975.25
2018-10-17T04:05:26.320Z,93972.78
2018-10-17T04:07:54.443Z,93977.76
2018-10-17T04:10:23.003Z,93983.20
2018-10-17T04:12:51.449Z,93982.91
2018-10-17T04:15:20.264Z,93982.40
2018-10-17T04:17:48.990Z,93984.23
2018-10-17T04:20:17.594Z,93980.08
2018-10-17T04:22:51.230Z,93978.05
2018-10-17T04:25:19.737Z,93980.74
2018-10-17T04:27:48.334Z,93981.98
2018-10-17T04:30:17.023Z,93977.38
2018-10-17T04:32:45.869Z,93975.89
2018-10-17T04:35:14.689Z,93975.23
2018-10-17T04:37:43.629Z,93981.45
2018-10-17T04:40:12.302Z,93978.43
2018-10-17T04:42:41.160Z,93972.07
2018-10-17T04:45:09.962Z,93980.13
2018-10-17T04:47:38.720Z,93987.94
2018-10-17T04:50:08.586Z,93985.86
2018-10-17T04:52:37.356Z,93986.77
2018-10-17T04:55:07.245Z,93986.52
2018-10-17T04:57:36.876Z,93990.55
2018-10-17T05:00:08.405Z,93994.78
2018-10-17T05:02:37.300Z,93993.70
2018-10-17T05:05:06.483Z,93994.74
2018-10-17T05:07:36.568Z,93992.34
2018-10-17T05:10:05.563Z,93997.86
2018-10-17T05:12:34.451Z,93996.02
2018-10-17T05:15:03.044Z,93996.94
2018-10-17T05:17:31.733Z,93998.05
2018-10-17T05:20:00.469Z,93998.06
2018-10-17T05:22:29.181Z,93993.89
2018-10-17T05:24:58.323Z,93992.39
2018-10-17T05:27:27.085Z,93992.73
2018-10-17T05:29:55.716Z,93997.14
2018-10-17T05:32:24.337Z,94000.14
2018-10-17T05:34:53.036Z,93998.94
2018-10-17T05:37:21.980Z,94001.22
2018-10-17T05:39:50.633Z,94000.56
2018-10-17T05:42:19.198Z,93999.09
2018-10-17T05:44:47.721Z,93997.13
2018-10-17T05:47:16.949Z,94001.86
2018-10-17T05:49:45.553Z,94000.63
2018-10-17T05:52:14.155Z,94004.45
2018-10-17T05:54:42.802Z,94009.31
2018-10-17T05:57:11.634Z,94008.42
2018-10-17T05:59:40.855Z,94008.34
2018-10-17T06:02:13.695Z,94007.03
2018-10-17T06:04:42.329Z,94003.14
2018-10-17T06:07:11.202Z,94008.25
2018-10-17T06:09:40.098Z,94004.37
2018-10-17T06:12:08.827Z,94003.17
2018-10-17T06:14:37.360Z,94006.56
2018-10-17T06:17:06.358Z,94009.77
2018-10-17T06:19:35.237Z,94008.68
2018-10-17T06:22:04.023Z,94011.86
2018-10-17T06:24:32.705Z,94017.29
2018-10-17T06:27:01.740Z,94015.70
2018-10-17T06:29:30.602Z,94017.34
2018-10-17T06:31:59.367Z,94019.23
2018-10-17T06:34:27.710Z,94015.73
2018-10-17T06:36:56.765Z,94005.67
2018-10-17T06:39:25.563Z,94002.48
2018-10-17T06:41:53.952Z,94000.56
2018-10-17T06:44:22.955Z,93993.29
2018-10-17T06:46:51.868Z,93996.77
2018-10-17T06:49:20.377Z,93992.48
2018-10-17T06:51:48.907Z,93992.71
2018-10-17T06:54:18.049Z,93991.88
2018-10-17T06:56:47.295Z,93992.76
2018-10-17T06:59:16.015Z,93993.16
2018-10-17T07:01:44.805Z,93990.00
2018-10-17T07:04:13.762Z,93990.48
2018-10-17T07:06:42.561Z,93991.03
2018-10-17T07:09:11.742Z,93985.25
2018-10-17T07:11:40.764Z,93987.68
2018-10-17T07:14:09.492Z,93980.09
2018-10-17T07:16:38.057Z,93965.71
2018-10-17T07:19:06.724Z,93975.25
2018-10-17T07:21:35.563Z,93972.59
2018-10-17T07:24:04.451Z,93976.99
2018-10-17T07:26:33.275Z,93976.58
2018-10-17T07:29:02.146Z,93975.15
2018-10-17T07:31:30.939Z,93981.53
2018-10-17T07:33:59.475Z,93984.81
2018-10-17T07:36:28.057Z,93981.41
2018-10-17T07:38:56.885Z,93975.50
2018-10-17T07:41:25.691Z,93974.03
2018-10-17T07:43:54.682Z,93971.45
2018-10-17T07:46:22.997Z,93966.09
2018-10-17T07:48:51.765Z,93970.92
2018-10-17T07:51:20.373Z,93962.63
2018-10-17T07:53:49.013Z,93967.32
2018-10-17T07:56:17.277Z,93966.24
2018-10-17T07:58:46.067Z,93956.69
2018-10-17T08:01:14.780Z,93962.16
2018-10-17T08:03:43.429Z,93968.36
2018-10-17T08:06:12.145Z,93959.30
2018-10-17T08:08:40.714Z,93969.02
2018-10-17T08:11:10.162Z,93962.80
2018-10-17T08:13:38.629Z,93964.81
2018-10-17T08:16:06.847Z,93958.22
2018-10-17T08:18:35.070Z,93951.17
2018-10-17T08:21:03.259Z,93954.64
2018-10-17T08:23:31.787Z,93954.41
2018-10-17T08:26:00.404Z,93950.30
2018-10-17T08:28:29.086Z,93947.38
2018-10-17T08:30:57.819Z,93949.69
2018-10-17T08:33:26.510Z,93950.31
2018-10-17T08:35:54.817Z,93937.09
2018-10-17T08:38:23.150Z,93936.67
2018-10-17T08:40:51.429Z,93941.48
2018-10-17T08:43:20.759Z,93941.39
2018-10-17T08:45:49.173Z,93934.61
2018-10-17T08:48:17.573Z,93936.71
2018-10-17T08:50:45.891Z,93937.53
2018-10-17T08:53:14.253Z,93936.38
2018-10-17T08:55:42.552Z,93930.55
2018-10-17T08:58:10.809Z,93919.39
2018-10-17T09:00:39.038Z,93923.40
2018-10-17T09:03:07.452Z,93928.11
2018-10-17T09:05:35.758Z,93922.30
2018-10-17T09:08:04.075Z,93920.27
2018-10-17T09:10:32.405Z,93919.79
2018-10-17T09:13:00.729Z,93921.59
2018-10-17T09:15:28.951Z,93920.09
2018-10-17T09:17:57.341Z,93918.69
2018-10-17T09:20:25.796Z,93914.89
2018-10-17T09:22:54.078Z,93916.97
2018-10-17T09:25:22.364Z,93919.73
2018-10-17T09:27:50.728Z,93914.14
2018-10-17T09:30:19.106Z,93916.69
2018-10-17T09:32:47.270Z,93916.78
2018-10-17T09:35:15.737Z,93917.77
2018-10-17T09:37:44.049Z,93909.16
2018-10-17T09:40:12.406Z,93909.84
2018-10-17T09:42:41.208Z,93904.16
2018-10-17T09:45:11.080Z,93898.09
2018-10-17T09:47:39.684Z,93896.41
2018-10-17T09:50:10.404Z,93891.97
2018-10-17T09:52:39.525Z,93887.38
2018-10-17T09:55:08.681Z,93887.53
2018-10-17T09:57:37.036Z,93882.09
2018-10-17T10:00:11.476Z,93877.56
2018-10-17T10:02:39.793Z,93872.70
2018-10-17T10:05:08.508Z,93864.87
2018-10-17T10:07:36.975Z,93861.16
2018-10-17T10:10:06.343Z,93854.36
2018-10-17T10:12:34.770Z,93849.08
2018-10-17T10:15:03.263Z,93848.09
2018-10-17T10:17:31.740Z,93845.59
2018-10-17T10:19:59.982Z,93840.73
2018-10-17T10:22:28.774Z,93829.95
2018-10-17T10:24:57.608Z,93828.38
2018-10-17T10:27:26.181Z,93813.20
2018-10-17T10:29:54.462Z,93826.30
2018-10-17T10:32:22.685Z,93817.66
2018-10-17T10:34:50.865Z,93807.66
2018-10-17T10:37:18.997Z,93806.86
2018-10-17T10:39:47.573Z,93805.41
2018-10-17T10:42:15.815Z,93796.87
2018-10-17T10:44:43.874Z,93792.94
2018-10-17T10:47:12.091Z,93787.91
2018-10-17T10:49:40.545Z,93791.78
2018-10-17T10:52:08.970Z,93786.25
2018-10-17T10:54:37.176Z,93781.77
2018-10-17T10:57:05.644Z,93771.19
2018-10-17T10:59:34.063Z,93769.59
2018-10-17T11:02:02.301Z,93770.34
2018-10-17T11:04:30.819Z,93765.54
2018-10-17T11:06:59.249Z,93765.05
2018-10-17T11:09:27.488Z,93765.39
2018-10-17T11:11:55.742Z,93759.41
2018-10-17T11:14:23.957Z,93760.42
2018-10-17T11:16:52.098Z,93751.63
2018-10-17T11:19:20.434Z,93749.14
2018-10-17T11:21:48.725Z,93745.34
2018-10-17T11:24:16.957Z,93743.84
2018-10-17T11:26:44.999Z,93742.52
2018-10-17T11:29:13.334Z,93729.59
2018-10-17T11:31:41.436Z,93735.87
2018-10-17T11:34:09.742Z,93734.23
2018-10-17T11:36:38.103Z,93730.25
2018-10-17T11:39:08.754Z,93725.94
2018-10-17T11:41:36.989Z,93718.81
2018-10-17T11:44:05.094Z,93721.94
2018-10-17T11:46:33.549Z,93718.46
2018-10-17T11:49:02.310Z,93709.38
2018-10-17T11:51:30.382Z,93711.20
2018-10-17T11:53:58.486Z,93711.16
2018-10-17T11:56:27.001Z,93708.03
2018-10-17T11:58:55.253Z,93701.88
2018-10-17T12:01:23.654Z,93693.77
2018-10-17T12:03:52.075Z,93693.59
2018-10-17T12:06:20.090Z,93696.59
2018-10-17T12:08:48.327Z,93687.47
2018-10-17T12:11:16.481Z,93684.95
2018-10-17T12:13:45.323Z,93684.02
2018-10-17T12:16:13.567Z,93685.88
2018-10-17T12:18:41.633Z,93678.25
2018-10-17T12:21:09.973Z,93682.61
2018-10-17T12:23:38.091Z,93686.02
2018-10-17T12:26:06.153Z,93686.20
2018-10-17T12:28:34.465Z,93689.18
2018-10-17T12:31:03.072Z,93684.39
2018-10-17T12:33:31.270Z,93684.04
2018-10-17T12:35:59.380Z,93681.54
2018-10-17T12:38:27.780Z,93679.41
2018-10-17T12:40:56.497Z,93674.63
2018-10-17T12:43:24.482Z,93668.12
2018-10-17T12:45:52.896Z,93670.86
2018-10-17T12:48:21.442Z,93664.41
2018-10-17T12:50:49.585Z,93666.18
2018-10-17T12:53:18.082Z,93658.58
2018-10-17T12:55:46.308Z,93653.94
2018-10-17T12:58:14.434Z,93655.48
2018-10-17T13:00:42.920Z,93665.94
2018-10-17T13:03:10.983Z,93660.63
2018-10-17T13:05:39.598Z,93658.61
2018-10-17T13:08:07.912Z,93656.80
2018-10-17T13:10:36.205Z,93657.94
2018-10-17T13:13:05.180Z,93653.98
2018-10-17T13:15:33.613Z,93652.33
2018-10-17T13:18:01.940Z,93649.69
2018-10-17T13:20:30.763Z,93645.37
2018-10-17T13:22:59.121Z,93643.70
2018-10-17T13:25:27.391Z,93646.21
2018-10-17T13:27:55.902Z,93646.73
2018-10-17T13:30:24.594Z,93641.23
2018-10-17T13:32:52.995Z,93650.55
2018-10-17T13:35:21.132Z,93650.41
2018-10-17T13:37:49.405Z,93653.73
2018-10-17T13:40:17.942Z,93653.71
2018-10-17T13:42:46.092Z,93643.97
2018-10-17T13:45:14.147Z,93647.62
2018-10-17T13:47:42.391Z,93644.13
2018-10-17T13:50:10.669Z,93642.81
2018-10-17T13:52:38.800Z,93637.66
2018-10-17T13:55:07.501Z,93642.48
2018-10-17T13:57:35.757Z,93632.72
2018-10-17T14:00:04.270Z,93634.89
2018-10-17T14:02:32.491Z,93643.82
2018-10-17T14:05:00.513Z,93645.16
2018-10-17T14:07:28.532Z,93634.03
2018-10-17T14:09:57.211Z,93632.69
2018-10-17T14:12:25.397Z,93634.34
2018-10-17T14:14:53.894Z,93632.83
2018-10-17T14:17:22.026Z,93637.77
2018-10-17T14:19:50.394Z,93636.23
2018-10-17T14:22:19.005Z,93635.77
2018-10-17T14:24:47.214Z,93635.26
2018-10-17T14:27:15.453Z,93634.71
2018-10-17T14:29:43.786Z,93625.09
2018-10-17T14:32:11.894Z,93627.58
2018-10-17T14:34:40.037Z,93634.78
2018-10-17T14:37:08.412Z,93628.30
2018-10-17T14:39:36.560Z,93630.88
2018-10-17T14:42:05.206Z,93624.66
2018-10-17T14:44:33.278Z,93626.98
2018-10-17T14:47:01.405Z,93628.80
2018-10-17T14:49:29.648Z,93627.56
2018-10-17T14:51:57.869Z,93627.98
2018-10-17T14:54:25.993Z,93629.41
2018-10-17T14:56:54.080Z,93623.69
2018-10-17T14:59:22.355Z,93629.44
2018-10-17T15:01:50.820Z,93632.66
2018-10-17T15:04:18.890Z,93631.30
2018-10-17T15:06:47.749Z,93621.70
2018-10-17T15:09:16.156Z,93624.69
2018-10-17T15:11:44.417Z,93628.83
2018-10-17T15:14:12.526Z,93629.56
2018-10-17T15:16:40.630Z,93624.30
2018-10-17T15:19:08.696Z,93626.00
2018-10-17T15:21:36.803Z,93623.66
2018-10-17T15:24:05.059Z,93623.03
2018-10-17T15:26:33.523Z,93627.16
2018-10-17T15:29:01.590Z,93625.53
2018-10-17T15:31:29.787Z,93630.20
2018-10-17T15:33:57.795Z,93637.64
2018-10-17T15:36:26.050Z,93634.55
2018-10-17T15:38:54.273Z,93631.06
2018-10-17T15:41:22.286Z,93638.80
2018-10-17T15:43:50.522Z,93634.56
2018-10-17T15:46:18.577Z,93633.27
2018-10-17T15:48:47.132Z,93637.25
2018-10-17T15:51:15.626Z,93637.23
2018-10-17T15:53:43.698Z,93636.44
2018-10-17T15:56:11.579Z,93642.42
2018-10-17T15:58:39.931Z,93641.16
2018-10-17T16:01:08.330Z,93635.84
2018-10-17T16:03:36.361Z,93644.23
2018-10-17T16:06:04.876Z,93652.96
2018-10-17T16:08:32.960Z,93654.95
2018-10-17T16:11:03.327Z,93661.26
2018-10-17T16:13:31.853Z,93653.79
2018-10-17T16:15:59.960Z,93659.95
2018-10-17T16:18:28.547Z,93658.30
2018-10-17T16:20:56.663Z,93663.56
2018-10-17T16:23:24.970Z,93660.11
2018-10-17T16:25:53.176Z,93666.30
2018-10-17T16:28:21.319Z,93669.52
2018-10-17T16:30:49.592Z,93670.70
2018-10-17T16:33:17.822Z,93672.52
2018-10-17T16:35:46.338Z,93669.08
2018-10-17T16:38:15.050Z,93665.13
2018-10-17T16:40:44.190Z,93675.14
2018-10-17T16:43:12.636Z,93675.02
2018-10-17T16:45:41.173Z,93679.08
2018-10-17T16:48:10.030Z,93681.78
2018-10-17T16:50:38.589Z,93679.27
2018-10-17T16:53:07.115Z,93680.30
2018-10-17T16:55:35.894Z,93680.59
2018-10-17T16:58:04.644Z,93684.67
2018-10-17T17:00:33.450Z,93685.62
2018-10-17T17:03:02.063Z,93676.58
2018-10-17T17:05:30.432Z,93677.55
2018-10-17T17:07:59.762Z,93685.55
2018-10-17T17:10:28.307Z,93689.39
2018-10-17T17:12:56.795Z,93686.78
2018-10-17T17:15:25.131Z,93696.19
2018-10-17T17:17:53.695Z,93690.59
2018-10-17T17:20:22.128Z,93690.23
2018-10-17T17:22:50.856Z,93681.16
2018-10-17T17:25:19.542Z,93684.24
2018-10-17T17:27:48.324Z,93686.76
2018-10-17T17:30:19.265Z,93683.80
2018-10-17T17:32:48.711Z,93680.67
2018-10-17T17:35:17.420Z,93681.91
2018-10-17T17:37:45.819Z,93682.64
2018-10-17T17:40:14.851Z,93679.34
2018-10-17T17:42:43.409Z,93679.08
2018-10-17T17:45:18.352Z,93676.53
2018-10-17T17:47:47.702Z,93675.87
2018-10-17T17:50:16.198Z,93672.79
2018-10-17T17:52:44.473Z,93673.07
2018-10-17T17:55:12.971Z,93675.94
2018-10-17T17:57:46.408Z,93676.64
2018-10-17T18:00:16.499Z,93676.06
2018-10-17T18:02:45.076Z,93681.31
2018-10-17T18:05:13.400Z,93678.84
2018-10-17T18:07:41.826Z,93676.95
2018-10-17T18:10:10.636Z,93681.93
2018-10-17T18:12:39.044Z,93681.81
2018-10-17T18:15:07.963Z,93690.37
2018-10-17T18:17:36.425Z,93684.55
2018-10-17T18:20:05.433Z,93692.17
2018-10-17T18:22:34.390Z,93694.08
2018-10-17T18:25:03.328Z,93701.55
2018-10-17T18:27:31.918Z,93711.09
2018-10-17T18:30:00.419Z,93712.17
2018-10-17T18:32:28.868Z,93714.18
2018-10-17T18:34:57.693Z,93712.77
2018-10-17T18:37:26.256Z,93720.86
2018-10-17T18:39:54.853Z,93713.48
2018-10-17T18:42:23.442Z,93710.27
2018-10-17T18:44:52.091Z,93718.82
2018-10-17T18:47:20.558Z,93719.16
2018-10-17T18:49:48.978Z,93725.55
2018-10-17T18:52:17.360Z,93722.69
2018-10-17T18:54:45.776Z,93728.98
2018-10-17T18:57:14.236Z,93728.36
2018-10-17T18:59:43.381Z,93734.66
2018-10-17T19:02:11.885Z,93733.22
2018-10-17T19:04:40.331Z,93726.61
2018-10-17T19:07:09.147Z,93726.27
2018-10-17T19:09:37.756Z,93730.67
2018-10-17T19:12:06.854Z,93733.56
2018-10-17T19:14:35.662Z,93736.55
2018-10-17T19:17:04.483Z,93741.35
2018-10-17T19:19:33.172Z,93743.50
2018-10-17T19:22:01.649Z,93745.80
2018-10-17T19:24:30.203Z,93751.81
2018-10-17T19:26:58.596Z,93747.41
2018-10-17T19:29:27.393Z,93745.34
2018-10-17T19:31:56.990Z,93747.24
2018-10-17T19:34:25.361Z,93754.83
2018-10-17T19:36:53.791Z,93758.59
2018-10-17T19:39:22.302Z,93756.09
2018-10-17T19:41:50.729Z,93757.83
2018-10-17T19:44:19.042Z,93753.38
2018-10-17T19:46:47.439Z,93756.37
2018-10-17T19:49:15.950Z,93758.98
2018-10-17T19:51:44.318Z,93751.87
2018-10-17T19:54:12.720Z,93748.44
2018-10-17T19:56:41.260Z,93750.00
2018-10-17T19:59:09.887Z,93751.75
2018-10-17T20:01:38.552Z,93751.80
2018-10-17T20:04:07.418Z,93753.95
2018-10-17T20:06:35.937Z,93754.12
2018-10-17T20:09:06.649Z,93750.92
2018-10-17T20:11:35.981Z,93757.25
2018-10-17T20:14:04.719Z,93754.64
2018-10-17T20:16:33.450Z,93750.69
2018-10-17T20:19:01.920Z,93757.59
2018-10-17T20:21:30.621Z,93759.31
2018-10-17T20:23:59.185Z,93759.45
2018-10-17T20:26:27.711Z,93768.05
2018-10-17T20:28:56.205Z,93758.28
2018-10-17T20:31:24.819Z,93753.43
2018-10-17T20:33:53.243Z,93754.33
2018-10-17T20:36:21.949Z,93761.48
2018-10-17T20:38:50.278Z,93766.09
2018-10-17T20:41:18.739Z,93765.66
2018-10-17T20:43:47.145Z,93758.70
2018-10-17T20:46:15.483Z,93760.96
2018-10-17T20:48:44.061Z,93761.20
2018-10-17T20:51:12.530Z,93771.41
2018-10-17T20:53:41.267Z,93767.88
2018-10-17T20:56:10.052Z,93766.63
2018-10-17T20:58:39.161Z,93766.73
2018-10-17T21:01:07.724Z,93760.24
2018-10-17T21:03:36.211Z,93763.74
2018-10-17T21:06:05.013Z,93754.97
2018-10-17T21:08:33.456Z,93765.59
2018-10-17T21:11:01.810Z,93768.45
2018-10-17T21:13:30.483Z,93765.33
2018-10-17T21:15:59.233Z,93762.33
2018-10-17T21:18:27.762Z,93762.33
2018-10-17T21:20:56.358Z,93766.12
2018-10-17T21:23:24.684Z,93769.80
2018-10-17T21:25:52.995Z,93775.09
2018-10-17T21:28:21.271Z,93766.15
2018-10-17T21:30:49.572Z,93768.45
2018-10-17T21:33:18.153Z,93772.23
2018-10-17T21:35:46.556Z,93776.46
2018-10-17T21:38:15.440Z,93772.65
2018-10-17T21:40:43.671Z,93775.05
2018-10-17T21:43:12.259Z,93772.06
2018-10-17T21:45:40.620Z,93772.37
2018-10-17T21:48:08.898Z,93779.48
2018-10-17T21:50:37.272Z,93780.77
2018-10-17T21:53:06.233Z,93780.73
2018-10-17T21:55:34.718Z,93776.16
2018-10-17T21:58:03.269Z,93775.60
2018-10-17T22:00:32.019Z,93777.88
2018-10-17T22:03:00.386Z,93773.99
2018-10-17T22:05:28.989Z,93771.23
2018-10-17T22:07:57.330Z,93776.46
2018-10-17T22:10:25.637Z,93774.19
2018-10-17T22:12:53.990Z,93770.17
2018-10-17T22:15:22.389Z,93763.84
2018-10-17T22:17:50.674Z,93763.64
2018-10-17T22:20:18.975Z,93754.53
2018-10-17T22:22:47.434Z,93752.64
2018-10-17T22:25:15.720Z,93751.78
2018-10-17T22:27:44.080Z,93756.97
2018-10-17T22:30:12.417Z,93750.20
2018-10-17T22:32:40.729Z,93750.20
2018-10-17T22:35:08.904Z,93749.96
2018-10-17T22:37:37.066Z,93747.20
2018-10-17T22:40:05.667Z,93750.02
2018-10-17T22:42:33.979Z,93746.92
2018-10-17T22:45:02.272Z,93746.88
2018-10-17T22:47:30.741Z,93752.30
2018-10-17T22:49:59.112Z,93746.46
2018-10-17T22:52:27.413Z,93740.72
2018-10-17T22:54:56.000Z,93737.80
2018-10-17T22:57:24.344Z,93736.08
2018-10-17T22:59:52.594Z,93737.80
2018-10-17T23:02:20.899Z,93735.73
2018-10-17T23:04:49.132Z,93736.61
2018-10-17T23:07:17.662Z,93736.84
2018-10-17T23:09:45.884Z,93736.27
2018-10-17T23:12:14.224Z,93733.96
2018-10-17T23:14:42.527Z,93732.89
2018-10-17T23:17:10.721Z,93729.08
2018-10-17T23:19:39.456Z,93733.56
2018-10-17T23:22:07.874Z,93733.33
2018-10-17T23:24:36.172Z,93734.91
2018-10-17T23:27:04.582Z,93726.81
2018-10-17T23:29:32.846Z,93731.88
2018-10-17T23:32:01.226Z,93723.13
2018-10-17T23:34:29.819Z,93722.89
2018-10-17T23:36:58.057Z,93722.89
2018-10-17T23:39:26.829Z,93721.45
2018-10-17T23:41:55.138Z,93724.20
2018-10-17T23:44:23.434Z,93719.52
2018-10-17T23:46:51.595Z,93724.06
2018-10-17T23:49:19.734Z,93718.11
2018-10-17T23:51:47.846Z,93714.83
2018-10-17T23:54:16.091Z,93716.66
2018-10-17T23:56:44.076Z,93712.75
2018-10-17T23:59:12.212Z,93717.14
